createdAt,value
2022-11-11T00:01:54.184Z,6.41
2022-11-11T00:04:23.720Z,6.51
2022-11-11T00:06:54.067Z,6.40
2022-11-11T00:09:23.607Z,6.32
2022-11-11T00:11:53.819Z,6.18
2022-11-11T00:14:24.219Z,6.35
2022-11-11T00:17:13.330Z,6.23
2022-11-11T00:20:00.116Z,6.18
2022-11-11T00:22:47.089Z,6.14
2022-11-11T00:25:18.033Z,6.03
2022-11-11T00:27:47.868Z,5.96
2022-11-11T00:30:17.512Z,5.93
2022-11-11T00:32:48.383Z,6.05
2022-11-11T00:35:35.485Z,6.18
2022-11-11T00:38:08.580Z,6.11
2022-11-11T00:40:38.589Z,6.11
2022-11-11T00:43:08.184Z,6.23
2022-11-11T00:45:37.867Z,6.22
2022-11-11T00:48:27.305Z,6.16
2022-11-11T00:51:02.668Z,6.21
2022-11-11T00:53:35.381Z,6.27
2022-11-11T00:56:05.168Z,6.25
2022-11-11T00:58:34.942Z,6.27
2022-11-11T01:01:04.546Z,5.99
2022-11-11T01:03:35.379Z,6.05
2022-11-11T01:06:05.347Z,6.01
2022-11-11T01:08:35.056Z,6.06
2022-11-11T01:11:15.760Z,6.12
2022-11-11T01:13:46.012Z,6.16
2022-11-11T01:16:16.689Z,6.06
2022-11-11T01:18:47.923Z,5.98
2022-11-11T01:21:19.211Z,5.89
2022-11-11T01:23:49.998Z,6.02
2022-11-11T01:26:22.548Z,5.93
2022-11-11T01:28:55.237Z,5.80
2022-11-11T01:31:26.117Z,5.84
2022-11-11T01:33:57.126Z,5.75
2022-11-11T01:36:27.823Z,5.77
2022-11-11T01:38:58.308Z,5.76
2022-11-11T01:41:34.892Z,5.81
2022-11-11T01:44:15.537Z,5.88
2022-11-11T01:46:47.124Z,5.92
2022-11-11T01:49:20.956Z,5.82
2022-11-11T01:51:56.472Z,5.83
2022-11-11T01:54:28.840Z,5.91
2022-11-11T01:57:02.801Z,5.92
2022-11-11T01:59:33.788Z,5.89
2022-11-11T02:02:07.153Z,5.77
2022-11-11T02:04:56.457Z,5.64
2022-11-11T02:07:27.531Z,5.80
2022-11-11T02:09:57.468Z,5.89
2022-11-11T02:12:45.470Z,5.91
2022-11-11T02:15:15.721Z,5.96
2022-11-11T02:17:47.742Z,5.90
2022-11-11T02:20:20.352Z,5.65
2022-11-11T02:22:53.164Z,5.57
2022-11-11T02:25:26.443Z,5.69
2022-11-11T02:27:59.201Z,5.71
2022-11-11T02:30:28.928Z,5.69
2022-11-11T02:32:58.494Z,5.68
2022-11-11T02:35:31.656Z,5.61
2022-11-11T02:38:02.104Z,5.62
2022-11-11T02:40:36.541Z,5.56
2022-11-11T02:43:06.161Z,5.58
2022-11-11T02:45:35.752Z,5.60
2022-11-11T02:48:05.767Z,5.61
2022-11-11T02:50:35.404Z,5.45
2022-11-11T02:53:05.190Z,5.48
2022-11-11T02:55:36.204Z,5.51
2022-11-11T02:58:05.833Z,5.46
2022-11-11T03:00:35.458Z,5.54
2022-11-11T03:03:05.152Z,5.58
2022-11-11T03:05:35.116Z,5.56
2022-11-11T03:08:04.969Z,5.46
2022-11-11T03:10:36.156Z,5.57
2022-11-11T03:13:06.372Z,5.55
2022-11-11T03:15:36.880Z,5.56
2022-11-11T03:18:05.465Z,5.59
2022-11-11T03:20:52.263Z,5.48
2022-11-11T03:23:22.158Z,5.47
2022-11-11T03:25:58.116Z,5.40
2022-11-11T03:28:28.007Z,5.41
2022-11-11T03:31:03.922Z,5.39
2022-11-11T03:33:33.772Z,5.23
2022-11-11T03:36:03.410Z,5.38
2022-11-11T03:38:31.892Z,5.31
2022-11-11T03:41:02.860Z,5.19
2022-11-11T03:43:33.150Z,5.37
2022-11-11T03:46:03.383Z,5.44
2022-11-11T03:48:34.845Z,5.50
2022-11-11T03:51:04.459Z,5.56
2022-11-11T03:53:33.951Z,5.35
2022-11-11T03:56:05.005Z,5.51
2022-11-11T03:58:34.490Z,5.61
2022-11-11T04:01:24.405Z,5.54
2022-11-11T04:04:11.321Z,5.53
2022-11-11T04:06:58.338Z,5.43
2022-11-11T04:09:45.097Z,5.29
2022-11-11T04:12:16.714Z,5.38
2022-11-11T04:15:04.102Z,5.34
2022-11-11T04:17:33.554Z,5.44
2022-11-11T04:20:20.379Z,5.53
2022-11-11T04:22:53.664Z,5.48
2022-11-11T04:25:41.840Z,5.40
2022-11-11T04:28:30.281Z,5.35
2022-11-11T04:30:59.796Z,5.33
2022-11-11T04:33:28.345Z,5.48
2022-11-11T04:35:57.856Z,5.50
2022-11-11T04:38:56.355Z,5.49
2022-11-11T04:41:36.048Z,5.37
2022-11-11T04:44:34.106Z,5.30
2022-11-11T04:47:03.605Z,5.27
2022-11-11T04:49:33.105Z,5.22
2022-11-11T04:52:19.964Z,5.36
2022-11-11T04:55:06.758Z,5.36
2022-11-11T04:57:36.233Z,5.37
2022-11-11T05:00:08.035Z,5.37
2022-11-11T05:02:55.194Z,5.39
2022-11-11T05:05:25.535Z,5.51
2022-11-11T05:08:12.609Z,5.30
2022-11-11T05:10:42.101Z,5.18
2022-11-11T05:13:29.678Z,5.18
2022-11-11T05:16:18.962Z,5.11
2022-11-11T05:19:05.875Z,5.13
2022-11-11T05:21:35.625Z,5.37
2022-11-11T05:24:22.834Z,5.39
2022-11-11T05:26:52.679Z,5.26
2022-11-11T05:29:22.128Z,5.44
2022-11-11T05:31:54.300Z,5.41
2022-11-11T05:34:23.871Z,5.45
2022-11-11T05:36:53.506Z,5.43
2022-11-11T05:39:22.940Z,5.45
2022-11-11T05:41:52.482Z,5.55
2022-11-11T05:44:22.302Z,5.58
2022-11-11T05:46:51.899Z,5.71
2022-11-11T05:49:23.693Z,5.72
2022-11-11T05:51:55.695Z,5.64
2022-11-11T05:54:25.472Z,5.57
2022-11-11T05:56:55.061Z,5.71
2022-11-11T05:59:24.902Z,5.78
2022-11-11T06:01:54.437Z,5.82
2022-11-11T06:04:26.108Z,5.77
2022-11-11T06:06:56.036Z,5.88
2022-11-11T06:09:25.801Z,5.97
2022-11-11T06:11:55.392Z,6.07
2022-11-11T06:14:24.970Z,6.15
2022-11-11T06:16:54.552Z,6.22
2022-11-11T06:19:25.525Z,6.28
2022-11-11T06:22:02.003Z,6.36
2022-11-11T06:24:31.680Z,6.37
2022-11-11T06:27:00.299Z,6.38
2022-11-11T06:29:29.851Z,6.53
2022-11-11T06:31:59.431Z,6.60
2022-11-11T06:34:30.576Z,6.65
2022-11-11T06:37:00.134Z,6.63
2022-11-11T06:39:31.026Z,6.64
2022-11-11T06:42:00.683Z,6.62
2022-11-11T06:44:30.429Z,6.68
2022-11-11T06:46:59.918Z,6.80
2022-11-11T06:49:30.795Z,6.82
2022-11-11T06:52:00.353Z,6.94
2022-11-11T06:54:29.980Z,7.04
2022-11-11T06:57:00.650Z,7.13
2022-11-11T06:59:31.840Z,7.22
2022-11-11T07:02:01.274Z,7.20
2022-11-11T07:04:32.296Z,7.24
2022-11-11T07:07:01.808Z,7.31
2022-11-11T07:09:31.411Z,7.42
2022-11-11T07:12:01.612Z,7.53
2022-11-11T07:14:31.806Z,7.62
2022-11-11T07:17:05.946Z,7.71
2022-11-11T07:19:37.512Z,7.77
2022-11-11T07:22:07.094Z,7.85
2022-11-11T07:24:37.034Z,7.96
2022-11-11T07:27:06.770Z,8.05
2022-11-11T07:29:36.340Z,8.13
2022-11-11T07:32:05.946Z,8.19
2022-11-11T07:34:36.937Z,8.25
2022-11-11T07:37:06.538Z,8.31
2022-11-11T07:39:36.098Z,8.36
2022-11-11T07:42:05.693Z,8.43
2022-11-11T07:44:35.368Z,8.58
2022-11-11T07:47:05.024Z,8.72
2022-11-11T07:49:34.637Z,8.89
2022-11-11T07:52:05.854Z,9.03
2022-11-11T07:54:35.489Z,9.18
2022-11-11T07:57:05.199Z,9.32
2022-11-11T07:59:34.953Z,9.45
2022-11-11T08:02:04.511Z,9.62
2022-11-11T08:04:34.253Z,9.78
2022-11-11T08:07:05.428Z,9.93
2022-11-11T08:09:35.331Z,10.12
2022-11-11T08:12:22.965Z,10.28
2022-11-11T08:14:54.310Z,10.58
2022-11-11T08:17:25.549Z,10.85
2022-11-11T08:19:55.165Z,11.05
2022-11-11T08:22:26.025Z,11.16
2022-11-11T08:25:04.708Z,11.21
2022-11-11T08:27:35.193Z,11.35
2022-11-11T08:30:05.936Z,11.43
2022-11-11T08:32:35.763Z,11.31
2022-11-11T08:35:05.550Z,11.37
2022-11-11T08:37:36.574Z,11.36
2022-11-11T08:40:06.899Z,11.37
2022-11-11T08:42:36.505Z,11.32
2022-11-11T08:45:06.447Z,11.46
2022-11-11T08:47:36.184Z,11.66
2022-11-11T08:50:07.907Z,11.68
2022-11-11T08:52:39.458Z,11.79
2022-11-11T08:55:09.126Z,11.90
2022-11-11T08:57:38.958Z,11.84
2022-11-11T09:00:09.389Z,11.80
2022-11-11T09:02:39.024Z,11.83
2022-11-11T09:05:08.702Z,11.90
2022-11-11T09:07:39.628Z,11.87
2022-11-11T09:10:10.004Z,11.89
2022-11-11T09:12:40.233Z,11.92
2022-11-11T09:15:10.668Z,11.99
2022-11-11T09:17:40.543Z,12.05
2022-11-11T09:20:10.948Z,12.04
2022-11-11T09:22:44.864Z,12.06
2022-11-11T09:25:14.760Z,12.04
2022-11-11T09:27:44.621Z,12.09
2022-11-11T09:30:14.418Z,12.02
2022-11-11T09:32:44.005Z,12.02
2022-11-11T09:35:13.566Z,12.04
2022-11-11T09:37:53.428Z,12.02
2022-11-11T09:40:24.213Z,11.97
2022-11-11T09:42:59.164Z,12.04
2022-11-11T09:45:33.392Z,11.96
2022-11-11T09:48:10.442Z,11.95
2022-11-11T09:50:41.737Z,11.96
2022-11-11T09:53:17.753Z,11.93
2022-11-11T09:55:50.486Z,11.93
2022-11-11T09:58:21.636Z,11.97
2022-11-11T10:00:56.666Z,11.98
2022-11-11T10:03:30.798Z,11.99
2022-11-11T10:06:04.439Z,11.94
2022-11-11T10:08:38.381Z,12.00
2022-11-11T10:11:13.832Z,11.97
2022-11-11T10:13:44.957Z,11.93
2022-11-11T10:16:21.113Z,11.95
2022-11-11T10:18:57.413Z,11.99
2022-11-11T10:21:50.940Z,12.02
2022-11-11T10:24:29.196Z,12.01
2022-11-11T10:27:00.522Z,12.05
2022-11-11T10:29:32.801Z,12.08
2022-11-11T10:32:06.322Z,12.14
2022-11-11T10:34:36.174Z,12.16
2022-11-11T10:37:16.111Z,12.14
2022-11-11T10:39:51.547Z,12.14
2022-11-11T10:42:21.156Z,12.16
2022-11-11T10:44:52.570Z,12.12
2022-11-11T10:47:29.544Z,12.17
2022-11-11T10:50:03.213Z,12.21
2022-11-11T10:52:35.312Z,12.22
2022-11-11T10:55:08.395Z,12.20
2022-11-11T10:57:39.891Z,12.15
2022-11-11T11:00:10.535Z,12.21
2022-11-11T11:02:43.129Z,12.19
2022-11-11T11:05:14.933Z,12.13
2022-11-11T11:07:47.639Z,12.11
2022-11-11T11:10:20.652Z,12.13
2022-11-11T11:12:54.114Z,12.05
2022-11-11T11:15:25.944Z,12.06
2022-11-11T11:17:58.877Z,12.00
2022-11-11T11:20:28.652Z,11.96
2022-11-11T11:22:59.699Z,12.00
2022-11-11T11:25:33.259Z,12.01
2022-11-11T11:28:07.438Z,12.00
2022-11-11T11:30:37.226Z,11.97
2022-11-11T11:33:07.379Z,11.92
2022-11-11T11:35:38.166Z,11.89
2022-11-11T11:38:08.821Z,11.88
2022-11-11T11:40:50.809Z,11.84
2022-11-11T11:43:26.296Z,11.80
2022-11-11T11:45:57.866Z,11.81
2022-11-11T11:48:34.132Z,11.77
2022-11-11T11:51:10.620Z,11.81
2022-11-11T11:53:47.546Z,11.88
2022-11-11T11:56:21.687Z,11.89
2022-11-11T11:58:57.489Z,11.86
2022-11-11T12:01:31.747Z,11.82
2022-11-11T12:04:19.224Z,11.83
2022-11-11T12:06:53.622Z,11.88
2022-11-11T12:09:28.997Z,11.86
2022-11-11T12:12:05.257Z,11.88
2022-11-11T12:14:40.066Z,11.88
2022-11-11T12:17:19.651Z,11.98
2022-11-11T12:19:57.603Z,12.00
2022-11-11T12:22:40.144Z,11.98
2022-11-11T12:25:17.581Z,11.97
2022-11-11T12:27:57.621Z,11.95
2022-11-11T12:30:29.209Z,11.92
2022-11-11T12:33:06.944Z,11.88
2022-11-11T12:35:50.138Z,11.87
2022-11-11T12:38:25.250Z,11.88
2022-11-11T12:40:59.222Z,11.83
2022-11-11T12:43:36.534Z,11.77
2022-11-11T12:46:12.528Z,11.74
2022-11-11T12:48:55.474Z,11.71
2022-11-11T12:51:32.767Z,11.66
2022-11-11T12:54:07.041Z,11.60
2022-11-11T12:56:42.208Z,11.58
2022-11-11T12:59:19.554Z,11.49
2022-11-11T13:01:53.352Z,11.53
2022-11-11T13:04:37.694Z,11.56
2022-11-11T13:07:15.568Z,11.51
2022-11-11T13:09:57.464Z,11.43
2022-11-11T13:12:32.724Z,11.40
2022-11-11T13:15:05.959Z,11.38
2022-11-11T13:17:35.825Z,11.34
2022-11-11T13:20:13.546Z,11.32
2022-11-11T13:22:43.126Z,11.30
2022-11-11T13:25:17.220Z,11.27
2022-11-11T13:27:50.582Z,11.24
2022-11-11T13:30:40.949Z,11.23
2022-11-11T13:33:18.144Z,11.22
2022-11-11T13:35:53.573Z,11.20
2022-11-11T13:38:25.869Z,11.21
2022-11-11T13:40:57.127Z,11.21
2022-11-11T13:43:30.962Z,11.19
2022-11-11T13:46:02.658Z,11.20
2022-11-11T13:48:35.550Z,11.23
2022-11-11T13:51:12.730Z,11.22
2022-11-11T13:53:43.172Z,11.20
2022-11-11T13:56:13.107Z,11.21
2022-11-11T13:58:48.189Z,11.20
2022-11-11T14:01:18.658Z,11.20
2022-11-11T14:04:05.879Z,11.20
2022-11-11T14:06:49.967Z,11.19
2022-11-11T14:09:38.326Z,11.16
2022-11-11T14:12:21.773Z,11.15
2022-11-11T14:14:57.592Z,11.13
2022-11-11T14:17:28.976Z,11.15
2022-11-11T14:19:58.867Z,11.13
2022-11-11T14:22:34.094Z,11.11
2022-11-11T14:25:21.239Z,11.09
2022-11-11T14:27:51.237Z,11.07
2022-11-11T14:30:44.743Z,11.07
2022-11-11T14:33:20.852Z,11.04
2022-11-11T14:35:56.949Z,11.00
2022-11-11T14:38:39.711Z,11.01
2022-11-11T14:41:28.301Z,10.98
2022-11-11T14:44:17.909Z,10.95
2022-11-11T14:47:02.407Z,10.96
2022-11-11T14:49:47.509Z,10.96
2022-11-11T14:52:23.109Z,10.99
2022-11-11T14:55:06.451Z,10.97
2022-11-11T14:57:36.719Z,10.95
2022-11-11T15:00:11.423Z,10.96
2022-11-11T15:02:46.272Z,10.94
2022-11-11T15:05:19.063Z,10.90
2022-11-11T15:08:00.078Z,10.88
2022-11-11T15:10:47.422Z,10.87
2022-11-11T15:13:45.912Z,10.78
2022-11-11T15:16:21.657Z,10.79
2022-11-11T15:19:04.337Z,10.79
2022-11-11T15:21:36.413Z,10.76
2022-11-11T15:24:20.126Z,10.76
2022-11-11T15:26:55.159Z,10.74
2022-11-11T15:29:44.555Z,10.75
2022-11-11T15:32:21.757Z,10.73
2022-11-11T15:34:57.481Z,10.74
2022-11-11T15:37:28.547Z,10.71
2022-11-11T15:39:58.816Z,10.71
2022-11-11T15:42:30.793Z,10.73
2022-11-11T15:45:04.954Z,10.76
2022-11-11T15:47:36.952Z,10.73
2022-11-11T15:50:17.334Z,10.74
2022-11-11T15:52:47.232Z,10.72
2022-11-11T15:55:22.573Z,10.69
2022-11-11T15:57:52.524Z,10.67
2022-11-11T16:00:31.312Z,10.66
2022-11-11T16:03:01.206Z,10.67
2022-11-11T16:05:32.307Z,10.70
2022-11-11T16:08:05.925Z,10.63
2022-11-11T16:10:36.393Z,10.64
2022-11-11T16:13:08.979Z,10.63
2022-11-11T16:15:43.796Z,10.65
2022-11-11T16:18:19.241Z,10.61
2022-11-11T16:20:51.234Z,10.60
2022-11-11T16:23:21.963Z,10.60
2022-11-11T16:25:53.883Z,10.55
2022-11-11T16:28:24.197Z,10.52
2022-11-11T16:30:55.588Z,10.50
2022-11-11T16:33:35.364Z,10.50
2022-11-11T16:36:08.522Z,10.47
2022-11-11T16:38:39.863Z,10.43
2022-11-11T16:41:24.592Z,10.38
2022-11-11T16:43:57.936Z,10.38
2022-11-11T16:46:42.878Z,10.41
2022-11-11T16:49:17.416Z,10.37
2022-11-11T16:51:47.678Z,10.37
2022-11-11T16:54:19.460Z,10.35
2022-11-11T16:56:50.925Z,10.35
2022-11-11T16:59:22.562Z,10.34
2022-11-11T17:01:54.675Z,10.32
2022-11-11T17:04:25.545Z,10.32
2022-11-11T17:06:56.731Z,10.33
2022-11-11T17:09:31.284Z,10.31
2022-11-11T17:12:02.773Z,10.27
2022-11-11T17:14:34.859Z,10.25
2022-11-11T17:17:09.129Z,10.24
2022-11-11T17:19:38.854Z,10.20
2022-11-11T17:22:09.782Z,10.23
2022-11-11T17:24:39.888Z,10.18
2022-11-11T17:27:09.764Z,10.10
2022-11-11T17:29:39.485Z,10.13
2022-11-11T17:32:12.497Z,10.09
2022-11-11T17:34:42.069Z,10.07
2022-11-11T17:37:12.133Z,9.95
2022-11-11T17:39:44.890Z,9.97
2022-11-11T17:42:15.016Z,9.95
2022-11-11T17:44:44.620Z,9.92
2022-11-11T17:47:16.877Z,9.94
2022-11-11T17:50:02.616Z,9.92
2022-11-11T17:52:32.226Z,9.86
2022-11-11T17:55:01.833Z,9.76
2022-11-11T17:57:32.258Z,9.82
2022-11-11T18:00:01.838Z,9.82
2022-11-11T18:02:32.848Z,9.79
2022-11-11T18:05:02.425Z,9.71
2022-11-11T18:07:32.085Z,9.72
2022-11-11T18:10:02.703Z,9.70
2022-11-11T18:12:33.207Z,9.65
2022-11-11T18:15:02.974Z,9.70
2022-11-11T18:17:34.160Z,9.62
2022-11-11T18:20:03.886Z,9.66
2022-11-11T18:22:33.509Z,9.68
2022-11-11T18:25:03.699Z,9.65
2022-11-11T18:27:33.284Z,9.60
2022-11-11T18:30:02.812Z,9.59
2022-11-11T18:32:32.402Z,9.59
2022-11-11T18:35:03.384Z,9.63
2022-11-11T18:37:36.772Z,9.61
2022-11-11T18:40:06.981Z,9.60
2022-11-11T18:42:36.591Z,9.57
2022-11-11T18:45:06.715Z,9.56
2022-11-11T18:47:36.236Z,9.52
2022-11-11T18:50:07.544Z,9.51
2022-11-11T18:52:37.260Z,9.51
2022-11-11T18:55:07.568Z,9.52
2022-11-11T18:57:37.170Z,9.52
2022-11-11T19:00:07.156Z,9.57
2022-11-11T19:02:36.711Z,9.55
2022-11-11T19:05:10.298Z,9.55
2022-11-11T19:07:39.860Z,9.57
2022-11-11T19:10:09.843Z,9.57
2022-11-11T19:12:39.828Z,9.54
2022-11-11T19:15:11.282Z,9.57
2022-11-11T19:17:40.889Z,9.48
2022-11-11T19:20:12.106Z,9.54
2022-11-11T19:22:41.705Z,9.58
2022-11-11T19:25:11.538Z,9.60
2022-11-11T19:27:41.206Z,9.56
2022-11-11T19:30:11.653Z,9.57
2022-11-11T19:32:42.340Z,9.47
2022-11-11T19:35:23.503Z,9.52
2022-11-11T19:37:53.221Z,9.48
2022-11-11T19:40:23.048Z,9.51
2022-11-11T19:42:52.675Z,9.52
2022-11-11T19:45:22.618Z,9.52
2022-11-11T19:47:52.680Z,9.53
2022-11-11T19:50:23.590Z,9.51
2022-11-11T19:52:53.157Z,9.50
2022-11-11T19:55:22.737Z,9.45
2022-11-11T19:57:52.776Z,9.49
2022-11-11T20:00:22.509Z,9.50
2022-11-11T20:02:52.351Z,9.48
2022-11-11T20:05:23.456Z,9.45
2022-11-11T20:07:54.864Z,9.44
2022-11-11T20:10:24.384Z,9.42
2022-11-11T20:12:54.537Z,9.40
2022-11-11T20:15:24.636Z,9.41
2022-11-11T20:17:54.746Z,9.42
2022-11-11T20:20:25.869Z,9.39
2022-11-11T20:22:55.690Z,9.38
2022-11-11T20:25:25.434Z,9.39
2022-11-11T20:27:55.142Z,9.39
2022-11-11T20:30:24.814Z,9.36
2022-11-11T20:32:54.390Z,9.32
2022-11-11T20:35:25.371Z,9.34
2022-11-11T20:37:55.033Z,9.33
2022-11-11T20:40:24.608Z,9.32
2022-11-11T20:42:54.263Z,9.31
2022-11-11T20:45:23.854Z,9.33
2022-11-11T20:47:53.469Z,9.37
2022-11-11T20:50:23.039Z,9.37
2022-11-11T20:52:55.079Z,9.34
2022-11-11T20:55:24.698Z,9.32
2022-11-11T20:57:54.716Z,9.28
2022-11-11T21:00:24.384Z,9.32
2022-11-11T21:02:53.973Z,9.29
2022-11-11T21:05:23.710Z,9.32
2022-11-11T21:07:54.605Z,9.28
2022-11-11T21:10:24.384Z,9.29
2022-11-11T21:12:59.479Z,9.33
2022-11-11T21:15:32.561Z,9.34
2022-11-11T21:18:02.759Z,9.29
2022-11-11T21:20:32.453Z,9.30
2022-11-11T21:23:03.453Z,9.26
2022-11-11T21:25:33.412Z,9.30
2022-11-11T21:28:05.581Z,9.28
2022-11-11T21:30:35.102Z,9.25
2022-11-11T21:33:08.159Z,9.26
2022-11-11T21:35:38.976Z,9.21
2022-11-11T21:38:10.068Z,9.21
2022-11-11T21:40:39.650Z,9.20
2022-11-11T21:43:11.556Z,9.22
2022-11-11T21:45:41.119Z,9.24
2022-11-11T21:48:10.852Z,9.22
2022-11-11T21:50:40.520Z,9.22
2022-11-11T21:53:11.525Z,9.19
2022-11-11T21:55:41.214Z,9.18
2022-11-11T21:58:10.918Z,9.16
2022-11-11T22:00:40.478Z,9.15
2022-11-11T22:03:10.056Z,9.14
2022-11-11T22:05:39.611Z,9.13
2022-11-11T22:08:09.216Z,9.12
2022-11-11T22:10:40.087Z,9.09
2022-11-11T22:13:10.321Z,9.06
2022-11-11T22:15:40.280Z,9.08
2022-11-11T22:18:09.839Z,9.04
2022-11-11T22:20:39.497Z,9.02
2022-11-11T22:23:09.037Z,9.03
2022-11-11T22:25:39.939Z,9.02
2022-11-11T22:28:09.592Z,9.00
2022-11-11T22:30:39.202Z,9.02
2022-11-11T22:33:09.353Z,9.02
2022-11-11T22:35:38.900Z,8.97
2022-11-11T22:38:08.606Z,9.00
2022-11-11T22:40:38.330Z,9.02
2022-11-11T22:43:09.393Z,8.92
2022-11-11T22:45:39.433Z,8.91
2022-11-11T22:48:09.094Z,8.88
2022-11-11T22:50:38.599Z,8.87
2022-11-11T22:53:08.103Z,8.86
2022-11-11T22:55:37.663Z,8.87
2022-11-11T22:58:07.246Z,8.86
2022-11-11T23:00:38.609Z,8.82
2022-11-11T23:03:13.111Z,8.84
2022-11-11T23:05:42.794Z,8.84
2022-11-11T23:08:12.400Z,8.83
2022-11-11T23:10:41.949Z,8.86
2022-11-11T23:13:12.105Z,8.81
2022-11-11T23:15:51.491Z,8.78
2022-11-11T23:18:21.389Z,8.85
2022-11-11T23:20:54.388Z,8.88
2022-11-11T23:23:24.232Z,8.86
2022-11-11T23:25:53.923Z,8.81
2022-11-11T23:28:23.858Z,8.84
2022-11-11T23:30:55.025Z,8.86
2022-11-11T23:33:24.602Z,8.82
2022-11-11T23:35:54.161Z,8.84
2022-11-11T23:38:23.937Z,8.78
2022-11-11T23:40:54.179Z,8.80
2022-11-11T23:43:23.979Z,8.84
2022-11-11T23:45:57.456Z,8.84
2022-11-11T23:48:28.669Z,8.84
2022-11-11T23:50:58.951Z,8.86
2022-11-11T23:53:28.801Z,8.78
2022-11-11T23:55:58.427Z,8.78
2022-11-11T23:58:28.559Z,8.79
